Terminal Aerodrome Forecast
Issued by NWS Wilmington, NC

Home | Current Version | Previous Version | Text Only | Print | Product List | Glossary On
Versions: 1 2 3 4 5 6 7 8 9 10 11 12 13 14 15 16 17
000
FTUS42 KILM 270910 AAA
TAFLBT
TAF AMD
KLBT 270910Z 2709/2806 18003KT P6SM FEW060
      TEMPO 2710/2713 3SM BR
     FM271300 19004KT P6SM BKN060 PROB30 2718/2720 4SM -SHRA OVC025
     FM272300 20006KT P6SM SCT025
     FM280400 18005KT P6SM SCT003=

USA.gov is the U.S. government's official web portal to all federal, state and local government web resources and services.